createdAt,value
2022-09-28T00:01:19.059Z,6.75
2022-09-28T00:03:46.396Z,6.71
2022-09-28T00:06:15.287Z,6.78
2022-09-28T00:08:41.236Z,6.73
2022-09-28T00:11:11.538Z,6.64
2022-09-28T00:13:37.437Z,6.78
2022-09-28T00:16:05.896Z,6.82
2022-09-28T00:18:32.809Z,6.88
2022-09-28T00:21:04.934Z,6.93
2022-09-28T00:23:31.609Z,6.84
2022-09-28T00:26:04.564Z,6.81
2022-09-28T00:28:30.845Z,6.96
2022-09-28T00:30:57.802Z,6.88
2022-09-28T00:33:23.852Z,6.80
2022-09-28T00:35:58.722Z,6.80
2022-09-28T00:38:30.460Z,6.80
2022-09-28T00:40:56.387Z,6.80
2022-09-28T00:43:23.339Z,6.68
2022-09-28T00:46:02.083Z,6.67
2022-09-28T00:48:33.245Z,6.74
2022-09-28T00:51:03.979Z,6.77
2022-09-28T00:53:34.185Z,6.57
2022-09-28T00:56:06.608Z,6.57
2022-09-28T00:58:37.883Z,6.60
2022-09-28T01:01:04.257Z,6.67
2022-09-28T01:03:31.902Z,6.60
2022-09-28T01:06:01.497Z,6.46
2022-09-28T01:08:29.894Z,6.39
2022-09-28T01:10:58.454Z,6.47
2022-09-28T01:13:25.028Z,6.46
2022-09-28T01:16:07.428Z,6.50
2022-09-28T01:18:56.213Z,6.49
2022-09-28T01:21:23.637Z,6.44
2022-09-28T01:24:37.439Z,6.49
2022-09-28T01:27:18.039Z,6.46
2022-09-28T01:29:57.318Z,6.47
2022-09-28T01:32:47.584Z,6.40
2022-09-28T01:35:30.394Z,6.50
2022-09-28T01:38:02.377Z,6.42
2022-09-28T01:40:31.602Z,6.44
2022-09-28T01:43:04.912Z,6.54
2022-09-28T01:45:41.401Z,6.58
2022-09-28T01:48:09.938Z,6.38
2022-09-28T01:50:38.828Z,6.46
2022-09-28T01:53:42.514Z,6.51
2022-09-28T01:56:22.702Z,6.49
2022-09-28T01:58:50.747Z,6.47
2022-09-28T02:01:36.460Z,6.42
2022-09-28T02:04:15.759Z,6.41
2022-09-28T02:06:52.891Z,6.46
2022-09-28T02:09:24.061Z,6.53
2022-09-28T02:11:58.207Z,6.45
2022-09-28T02:14:25.669Z,6.32
2022-09-28T02:16:53.649Z,6.29
2022-09-28T02:19:23.664Z,6.42
2022-09-28T02:22:13.004Z,6.36
2022-09-28T02:24:58.987Z,6.42
2022-09-28T02:27:33.745Z,6.39
2022-09-28T02:30:00.187Z,6.43
2022-09-28T02:32:28.998Z,6.35
2022-09-28T02:34:55.007Z,6.42
2022-09-28T02:37:21.013Z,6.32
2022-09-28T02:39:46.768Z,6.42
2022-09-28T02:42:23.123Z,6.36
2022-09-28T02:44:48.873Z,6.32
2022-09-28T02:47:33.513Z,6.32
2022-09-28T02:50:27.299Z,6.40
2022-09-28T02:53:11.732Z,6.39
2022-09-28T02:55:37.462Z,6.36
2022-09-28T02:58:23.516Z,6.29
2022-09-28T03:01:28.203Z,6.26
2022-09-28T03:04:00.405Z,6.31
2022-09-28T03:06:32.957Z,6.21
2022-09-28T03:09:13.421Z,6.25
2022-09-28T03:11:46.506Z,6.16
2022-09-28T03:14:13.348Z,6.21
2022-09-28T03:16:43.630Z,6.22
2022-09-28T03:19:15.423Z,6.16
2022-09-28T03:21:41.324Z,6.16
2022-09-28T03:24:09.743Z,6.23
2022-09-28T03:26:35.673Z,6.30
2022-09-28T03:29:01.461Z,6.34
2022-09-28T03:31:27.257Z,6.28
2022-09-28T03:33:53.066Z,6.27
2022-09-28T03:36:19.019Z,6.28
2022-09-28T03:38:45.032Z,6.23
2022-09-28T03:41:10.874Z,6.16
2022-09-28T03:43:36.621Z,6.13
2022-09-28T03:46:03.012Z,6.17
2022-09-28T03:48:32.624Z,6.21
2022-09-28T03:51:01.592Z,6.24
2022-09-28T03:53:28.870Z,6.26
2022-09-28T03:55:55.196Z,6.24
2022-09-28T03:58:22.146Z,6.31
2022-09-28T04:00:49.289Z,6.25
2022-09-28T04:03:15.293Z,6.31
2022-09-28T04:05:52.187Z,6.23
2022-09-28T04:08:18.618Z,6.31
2022-09-28T04:10:44.553Z,6.27
2022-09-28T04:13:10.537Z,6.32
2022-09-28T04:15:37.741Z,6.22
2022-09-28T04:18:11.259Z,6.29
2022-09-28T04:20:40.214Z,6.24
2022-09-28T04:23:06.608Z,6.28
2022-09-28T04:25:32.386Z,6.23
2022-09-28T04:28:16.829Z,6.20
2022-09-28T04:30:42.591Z,6.17
2022-09-28T04:33:08.368Z,6.14
2022-09-28T04:35:34.140Z,6.15
2022-09-28T04:37:59.910Z,6.19
2022-09-28T04:40:25.790Z,6.21
2022-09-28T04:42:55.678Z,6.26
2022-09-28T04:45:22.513Z,6.24
2022-09-28T04:47:48.298Z,6.29
2022-09-28T04:50:14.121Z,6.33
2022-09-28T04:52:39.868Z,6.33
2022-09-28T04:55:06.145Z,6.26
2022-09-28T04:57:35.067Z,6.31
2022-09-28T05:00:01.134Z,6.23
2022-09-28T05:02:28.750Z,6.15
2022-09-28T05:04:55.748Z,6.27
2022-09-28T05:07:21.703Z,6.16
2022-09-28T05:09:47.470Z,6.23
2022-09-28T05:12:13.195Z,6.24
2022-09-28T05:14:38.973Z,6.23
2022-09-28T05:17:04.850Z,6.13
2022-09-28T05:19:30.737Z,6.13
2022-09-28T05:21:57.393Z,6.17
2022-09-28T05:24:23.547Z,6.16
2022-09-28T05:26:49.366Z,6.11
2022-09-28T05:29:15.164Z,6.09
2022-09-28T05:31:41.142Z,6.22
2022-09-28T05:34:07.012Z,6.18
2022-09-28T05:36:32.812Z,6.16
2022-09-28T05:38:58.668Z,6.08
2022-09-28T05:41:24.436Z,6.18
2022-09-28T05:43:51.542Z,6.16
2022-09-28T05:46:17.762Z,6.13
2022-09-28T05:48:43.576Z,6.15
2022-09-28T05:51:09.601Z,6.00
2022-09-28T05:53:35.820Z,6.11
2022-09-28T05:56:01.807Z,6.13
2022-09-28T05:58:28.296Z,6.04
2022-09-28T06:00:55.386Z,6.07
2022-09-28T06:03:21.283Z,6.11
2022-09-28T06:05:47.076Z,6.04
2022-09-28T06:08:13.372Z,6.13
2022-09-28T06:10:39.510Z,6.13
2022-09-28T06:13:06.609Z,6.20
2022-09-28T06:15:34.190Z,6.11
2022-09-28T06:18:10.261Z,6.04
2022-09-28T06:20:40.554Z,6.12
2022-09-28T06:23:07.020Z,6.12
2022-09-28T06:25:33.027Z,6.13
2022-09-28T06:28:03.781Z,6.22
2022-09-28T06:30:31.864Z,6.25
2022-09-28T06:32:59.851Z,6.32
2022-09-28T06:35:27.927Z,6.42
2022-09-28T06:37:53.857Z,6.42
2022-09-28T06:40:20.839Z,6.46
2022-09-28T06:42:58.671Z,6.44
2022-09-28T06:45:25.958Z,6.41
2022-09-28T06:47:59.206Z,6.48
2022-09-28T06:50:27.329Z,6.48
2022-09-28T06:52:54.362Z,6.59
2022-09-28T06:55:21.027Z,6.64
2022-09-28T06:57:47.232Z,6.53
2022-09-28T07:00:13.921Z,6.56
2022-09-28T07:02:39.764Z,6.53
2022-09-28T07:05:07.408Z,6.53
2022-09-28T07:07:33.233Z,6.56
2022-09-28T07:09:58.967Z,6.62
2022-09-28T07:12:25.534Z,6.59
2022-09-28T07:14:56.446Z,6.59
2022-09-28T07:17:23.471Z,6.64
2022-09-28T07:19:52.526Z,6.68
2022-09-28T07:22:32.274Z,6.71
2022-09-28T07:25:00.763Z,6.63
2022-09-28T07:27:29.007Z,6.61
2022-09-28T07:29:55.015Z,6.64
2022-09-28T07:32:21.147Z,6.51
2022-09-28T07:34:48.014Z,6.57
2022-09-28T07:37:15.166Z,6.57
2022-09-28T07:39:59.782Z,6.64
2022-09-28T07:42:29.179Z,6.67
2022-09-28T07:44:56.226Z,6.76
2022-09-28T07:47:33.884Z,6.69
2022-09-28T07:50:00.899Z,6.65
2022-09-28T07:52:28.038Z,6.61
2022-09-28T07:54:57.774Z,6.67
2022-09-28T07:57:23.735Z,6.69
2022-09-28T07:59:50.132Z,6.59
2022-09-28T08:02:19.563Z,6.64
2022-09-28T08:04:46.629Z,6.66
2022-09-28T08:07:13.457Z,6.68
2022-09-28T08:09:39.287Z,6.59
2022-09-28T08:12:05.183Z,6.43
2022-09-28T08:14:33.599Z,6.41
2022-09-28T08:17:01.033Z,6.47
2022-09-28T08:19:47.128Z,6.63
2022-09-28T08:22:13.319Z,6.75
2022-09-28T08:24:39.080Z,6.82
2022-09-28T08:27:06.451Z,6.75
2022-09-28T08:29:32.220Z,6.68
2022-09-28T08:32:01.881Z,6.74
2022-09-28T08:34:28.242Z,6.74
2022-09-28T08:36:57.152Z,6.87
2022-09-28T08:39:22.926Z,6.78
2022-09-28T08:42:16.166Z,6.64
2022-09-28T08:44:46.400Z,6.70
2022-09-28T08:47:39.233Z,6.77
2022-09-28T08:50:13.122Z,6.69
2022-09-28T08:52:39.861Z,6.71
2022-09-28T08:55:19.834Z,6.85
2022-09-28T08:58:10.420Z,7.02
2022-09-28T09:00:40.415Z,7.04
2022-09-28T09:03:11.502Z,7.04
2022-09-28T09:06:05.151Z,7.31
2022-09-28T09:09:06.760Z,7.37
2022-09-28T09:11:51.547Z,7.30
2022-09-28T09:14:47.090Z,7.30
2022-09-28T09:17:17.645Z,7.25
2022-09-28T09:19:46.371Z,7.31
2022-09-28T09:22:14.830Z,7.41
2022-09-28T09:24:49.928Z,7.46
2022-09-28T09:28:10.515Z,7.59
2022-09-28T09:30:55.689Z,7.36
2022-09-28T09:33:30.404Z,7.21
2022-09-28T09:36:11.550Z,7.28
2022-09-28T09:39:29.837Z,7.28
2022-09-28T09:42:18.956Z,7.25
2022-09-28T09:45:18.164Z,7.30
2022-09-28T09:47:49.854Z,7.67
2022-09-28T09:50:29.406Z,7.73
2022-09-28T09:53:24.371Z,7.77
2022-09-28T09:55:56.604Z,8.07
2022-09-28T09:58:35.705Z,8.22
2022-09-28T10:01:07.678Z,8.40
2022-09-28T10:03:35.941Z,8.59
2022-09-28T10:06:13.839Z,8.33
2022-09-28T10:09:02.211Z,8.36
2022-09-28T10:11:35.908Z,8.09
2022-09-28T10:14:03.559Z,8.07
2022-09-28T10:16:32.327Z,7.87
2022-09-28T10:18:59.420Z,8.02
2022-09-28T10:21:25.750Z,7.80
2022-09-28T10:24:03.237Z,7.69
2022-09-28T10:26:40.423Z,7.74
2022-09-28T10:29:15.009Z,7.52
2022-09-28T10:31:45.681Z,7.56
2022-09-28T10:34:14.089Z,7.56
2022-09-28T10:37:08.445Z,7.54
2022-09-28T10:39:40.321Z,7.54
2022-09-28T10:42:09.456Z,7.33
2022-09-28T10:44:50.664Z,7.42
2022-09-28T10:47:19.721Z,7.54
2022-09-28T10:49:48.565Z,7.52
2022-09-28T10:52:39.777Z,7.35
2022-09-28T10:55:20.858Z,7.54
2022-09-28T10:57:47.479Z,7.63
2022-09-28T11:00:35.776Z,7.71
2022-09-28T11:03:02.214Z,7.74
2022-09-28T11:05:29.353Z,7.51
2022-09-28T11:08:04.887Z,7.62
2022-09-28T11:10:32.060Z,7.61
2022-09-28T11:12:58.999Z,7.61
2022-09-28T11:15:31.464Z,7.66
2022-09-28T11:18:19.064Z,7.59
2022-09-28T11:20:45.639Z,7.47
2022-09-28T11:23:30.342Z,7.58
2022-09-28T11:26:06.906Z,7.63
2022-09-28T11:28:36.965Z,7.47
2022-09-28T11:31:06.465Z,7.42
2022-09-28T11:33:38.305Z,7.57
2022-09-28T11:36:12.820Z,7.63
2022-09-28T11:39:03.172Z,7.72
2022-09-28T11:41:58.121Z,7.80
2022-09-28T11:44:47.696Z,8.00
2022-09-28T11:47:56.925Z,8.34
2022-09-28T11:50:37.924Z,8.50
2022-09-28T11:53:09.744Z,8.60
2022-09-28T11:56:14.110Z,8.62
2022-09-28T11:58:46.045Z,8.53
2022-09-28T12:01:25.507Z,8.46
2022-09-28T12:03:56.874Z,8.32
2022-09-28T12:06:35.983Z,8.47
2022-09-28T12:09:13.351Z,8.42
2022-09-28T12:11:43.236Z,8.32
2022-09-28T12:14:33.999Z,8.51
2022-09-28T12:17:20.701Z,8.37
2022-09-28T12:19:56.050Z,8.26
2022-09-28T12:22:32.233Z,8.22
2022-09-28T12:24:59.741Z,8.18
2022-09-28T12:27:28.243Z,8.32
2022-09-28T12:30:04.525Z,8.28
2022-09-28T12:32:46.096Z,8.38
2022-09-28T12:35:13.300Z,8.54
2022-09-28T12:37:45.089Z,8.69
2022-09-28T12:40:39.819Z,8.62
2022-09-28T12:43:10.431Z,8.57
2022-09-28T12:46:10.408Z,8.48
2022-09-28T12:52:05.826Z,8.36
2022-09-28T12:54:52.561Z,8.30
2022-09-28T12:57:40.129Z,8.39
2022-09-28T13:00:29.313Z,8.32
2022-09-28T13:03:01.016Z,8.14
2022-09-28T13:05:47.970Z,8.11
2022-09-28T13:08:30.979Z,8.16
2022-09-28T13:11:02.160Z,8.30
2022-09-28T13:14:01.190Z,8.48
2022-09-28T13:16:49.164Z,8.53
2022-09-28T13:19:37.604Z,8.64
2022-09-28T13:22:03.379Z,8.65
2022-09-28T13:24:34.451Z,8.59
2022-09-28T13:27:12.853Z,8.55
2022-09-28T13:29:40.650Z,8.57
2022-09-28T13:32:08.793Z,8.59
2022-09-28T13:34:37.246Z,8.72
2022-09-28T13:37:16.095Z,8.66
2022-09-28T13:39:44.816Z,8.65
2022-09-28T13:42:33.528Z,8.70
2022-09-28T13:45:21.372Z,8.82
2022-09-28T13:47:59.026Z,8.94
2022-09-28T13:50:37.545Z,8.86
2022-09-28T13:53:37.321Z,8.93
2022-09-28T13:56:03.028Z,9.12
2022-09-28T13:58:37.729Z,9.24
2022-09-28T14:01:10.617Z,9.28
2022-09-28T14:03:36.442Z,9.32
2022-09-28T14:06:07.585Z,9.35
2022-09-28T14:08:39.183Z,9.49
2022-09-28T14:11:40.399Z,9.33
2022-09-28T14:14:13.388Z,9.43
2022-09-28T14:16:41.485Z,9.85
2022-09-28T14:19:20.302Z,9.85
2022-09-28T14:22:05.191Z,9.60
2022-09-28T14:25:10.245Z,9.57
2022-09-28T14:28:14.045Z,9.31
2022-09-28T14:30:42.943Z,9.47
2022-09-28T14:33:38.083Z,9.57
2022-09-28T14:36:07.906Z,9.66
2022-09-28T14:38:56.011Z,9.80
2022-09-28T14:41:33.738Z,9.61
2022-09-28T14:44:07.634Z,9.64
2022-09-28T14:46:46.989Z,9.63
2022-09-28T14:49:24.187Z,9.64
2022-09-28T14:51:52.843Z,9.57
2022-09-28T14:54:24.761Z,9.51
2022-09-28T14:56:53.582Z,9.70
2022-09-28T14:59:23.727Z,9.66
2022-09-28T15:02:14.309Z,9.66
2022-09-28T15:04:51.295Z,9.70
2022-09-28T15:07:23.455Z,9.71
2022-09-28T15:09:54.146Z,9.39
2022-09-28T15:12:26.861Z,9.31
2022-09-28T15:14:58.708Z,9.31
2022-09-28T15:17:29.383Z,9.33
2022-09-28T15:20:10.339Z,9.28
2022-09-28T15:22:43.816Z,9.21
2022-09-28T15:25:16.047Z,9.18
2022-09-28T15:27:42.068Z,9.29
2022-09-28T15:30:22.554Z,9.21
2022-09-28T15:32:48.772Z,9.15
2022-09-28T15:35:19.914Z,9.09
2022-09-28T15:37:51.181Z,9.03
2022-09-28T15:40:38.422Z,8.93
2022-09-28T15:43:32.145Z,9.09
2022-09-28T15:46:03.889Z,9.08
2022-09-28T15:48:44.729Z,8.89
2022-09-28T15:51:11.225Z,8.91
2022-09-28T15:53:57.637Z,8.82
2022-09-28T15:56:24.983Z,8.87
2022-09-28T15:59:12.469Z,8.84
2022-09-28T16:01:40.539Z,8.69
2022-09-28T16:04:31.994Z,8.49
2022-09-28T16:07:11.247Z,8.59
2022-09-28T16:10:01.879Z,8.52
2022-09-28T16:12:31.020Z,8.37
2022-09-28T16:15:03.245Z,8.38
2022-09-28T16:17:33.055Z,8.27
2022-09-28T16:20:18.086Z,8.20
2022-09-28T16:22:44.143Z,8.24
2022-09-28T16:25:23.983Z,8.16
2022-09-28T16:27:52.587Z,8.23
2022-09-28T16:30:24.126Z,8.15
2022-09-28T16:32:55.655Z,8.01
2022-09-28T16:35:25.204Z,7.88
2022-09-28T16:37:56.982Z,7.83
2022-09-28T16:40:23.101Z,7.67
2022-09-28T16:42:49.594Z,7.73
2022-09-28T16:45:24.975Z,7.70
2022-09-28T16:47:51.661Z,7.72
2022-09-28T16:50:21.634Z,7.79
2022-09-28T16:53:29.314Z,7.69
2022-09-28T16:55:55.134Z,7.51
2022-09-28T16:58:21.593Z,7.39
2022-09-28T17:00:47.380Z,7.36
2022-09-28T17:03:17.787Z,7.21
2022-09-28T17:05:44.435Z,7.13
2022-09-28T17:08:16.385Z,7.30
2022-09-28T17:11:13.159Z,7.42
2022-09-28T17:13:35.296Z,7.41
2022-09-28T17:16:08.086Z,7.25
2022-09-28T17:18:38.370Z,7.21
2022-09-28T17:21:08.559Z,7.12
2022-09-28T17:23:34.524Z,7.05
2022-09-28T17:26:01.501Z,7.03
2022-09-28T17:28:33.615Z,6.99
2022-09-28T17:31:00.407Z,6.89
2022-09-28T17:33:26.558Z,7.00
2022-09-28T17:35:58.194Z,7.04
2022-09-28T17:38:23.987Z,7.07
2022-09-28T17:40:50.062Z,7.10
2022-09-28T17:43:16.033Z,7.15
2022-09-28T17:45:45.475Z,7.16
2022-09-28T17:48:22.645Z,7.08
2022-09-28T17:50:48.610Z,7.06
2022-09-28T17:53:14.590Z,7.06
2022-09-28T17:55:42.242Z,7.02
2022-09-28T17:58:16.045Z,7.15
2022-09-28T18:00:42.977Z,7.11
2022-09-28T18:03:13.850Z,7.05
2022-09-28T18:05:39.820Z,7.13
2022-09-28T18:08:05.567Z,7.29
2022-09-28T18:10:31.608Z,7.08
2022-09-28T18:12:57.352Z,7.05
2022-09-28T18:15:23.246Z,6.98
2022-09-28T18:17:49.259Z,6.81
2022-09-28T18:20:15.123Z,6.85
2022-09-28T18:22:41.067Z,6.89
2022-09-28T18:25:07.448Z,6.90
2022-09-28T18:27:36.047Z,6.90
2022-09-28T18:30:01.905Z,6.99
2022-09-28T18:32:27.860Z,6.96
2022-09-28T18:34:53.694Z,6.82
2022-09-28T18:37:19.486Z,6.94
2022-09-28T18:39:45.562Z,6.95
2022-09-28T18:42:12.546Z,7.03
2022-09-28T18:44:38.404Z,7.07
2022-09-28T18:47:04.234Z,7.04
2022-09-28T18:49:30.872Z,6.98
2022-09-28T18:51:56.882Z,7.01
2022-09-28T18:54:22.759Z,6.94
2022-09-28T18:56:50.503Z,6.97
2022-09-28T18:59:16.512Z,6.99
2022-09-28T19:01:42.828Z,6.92
2022-09-28T19:04:10.031Z,6.80
2022-09-28T19:06:40.524Z,6.78
2022-09-28T19:09:07.756Z,6.83
2022-09-28T19:11:33.918Z,6.74
2022-09-28T19:13:59.750Z,6.97
2022-09-28T19:16:28.804Z,6.94
2022-09-28T19:18:58.062Z,6.94
2022-09-28T19:21:24.413Z,6.85
2022-09-28T19:23:52.881Z,6.95
2022-09-28T19:26:21.271Z,6.82
2022-09-28T19:28:47.778Z,6.81
2022-09-28T19:31:13.825Z,6.88
2022-09-28T19:33:40.037Z,6.87
2022-09-28T19:36:15.090Z,7.01
2022-09-28T19:38:40.935Z,7.00
2022-09-28T19:41:33.353Z,7.00
2022-09-28T19:44:01.902Z,6.92
2022-09-28T19:46:30.448Z,7.00
2022-09-28T19:49:00.271Z,6.97
2022-09-28T19:51:27.485Z,6.99
2022-09-28T19:53:53.687Z,7.03
2022-09-28T19:56:20.682Z,7.06
2022-09-28T19:58:46.673Z,7.03
2022-09-28T20:01:12.685Z,7.05
2022-09-28T20:03:38.677Z,6.97
2022-09-28T20:06:04.970Z,6.71
2022-09-28T20:08:31.357Z,6.83
2022-09-28T20:10:59.054Z,6.74
2022-09-28T20:13:33.692Z,6.77
2022-09-28T20:16:23.737Z,6.71
2022-09-28T20:18:52.058Z,6.72
2022-09-28T20:21:25.167Z,6.71
2022-09-28T20:23:58.256Z,6.48
2022-09-28T20:26:25.776Z,6.56
2022-09-28T20:28:52.372Z,6.58
2022-09-28T20:31:22.995Z,6.41
2022-09-28T20:33:49.924Z,6.46
2022-09-28T20:36:21.162Z,6.34
2022-09-28T20:38:54.038Z,6.35
2022-09-28T20:41:22.231Z,6.36
2022-09-28T20:43:53.056Z,6.30
2022-09-28T20:46:20.589Z,6.45
2022-09-28T20:48:48.685Z,6.42
2022-09-28T20:51:17.651Z,6.29
2022-09-28T20:53:48.811Z,6.32
2022-09-28T20:56:25.956Z,6.31
2022-09-28T20:58:52.637Z,6.31
2022-09-28T21:01:23.375Z,6.44
2022-09-28T21:03:51.925Z,6.33
2022-09-28T21:06:18.954Z,6.24
2022-09-28T21:08:45.618Z,6.32
2022-09-28T21:11:12.459Z,6.25
2022-09-28T21:13:40.790Z,6.24
2022-09-28T21:16:07.165Z,6.24
2022-09-28T21:18:32.999Z,6.17
2022-09-28T21:20:58.977Z,6.21
2022-09-28T21:23:25.151Z,6.10
2022-09-28T21:26:10.841Z,6.06
2022-09-28T21:28:37.561Z,6.00
2022-09-28T21:31:08.625Z,6.03
2022-09-28T21:33:34.337Z,6.15
2022-09-28T21:36:01.451Z,6.15
2022-09-28T21:38:27.972Z,6.02
2022-09-28T21:40:56.047Z,5.97
2022-09-28T21:43:23.587Z,5.98
2022-09-28T21:45:53.931Z,6.13
2022-09-28T21:48:21.063Z,6.19
2022-09-28T21:51:01.338Z,6.02
2022-09-28T21:53:32.528Z,5.96
2022-09-28T21:55:59.927Z,6.20
2022-09-28T21:58:28.672Z,6.05
2022-09-28T22:01:17.161Z,6.21
2022-09-28T22:03:49.743Z,6.17
2022-09-28T22:06:17.730Z,6.09
2022-09-28T22:08:45.134Z,6.12
2022-09-28T22:11:14.054Z,6.27
2022-09-28T22:13:48.318Z,6.19
2022-09-28T22:16:16.704Z,6.11
2022-09-28T22:18:42.920Z,6.11
2022-09-28T22:21:10.646Z,6.17
2022-09-28T22:23:37.835Z,6.21
2022-09-28T22:26:13.155Z,6.32
2022-09-28T22:28:48.670Z,6.33
2022-09-28T22:31:15.667Z,6.32
2022-09-28T22:33:41.821Z,6.41
2022-09-28T22:36:07.927Z,6.40
2022-09-28T22:38:34.516Z,6.33
2022-09-28T22:41:02.665Z,6.29
2022-09-28T22:43:29.220Z,6.32
2022-09-28T22:46:06.820Z,6.41
2022-09-28T22:48:34.077Z,6.36
2022-09-28T22:51:01.253Z,6.39
2022-09-28T22:53:27.789Z,6.41
2022-09-28T22:55:55.247Z,6.36
2022-09-28T22:58:21.035Z,6.36
2022-09-28T23:00:47.673Z,6.25
2022-09-28T23:03:13.789Z,6.30
2022-09-28T23:05:39.672Z,6.32
2022-09-28T23:08:05.446Z,6.29
2022-09-28T23:10:31.687Z,6.27
2022-09-28T23:12:57.711Z,6.24
2022-09-28T23:15:24.335Z,6.32
2022-09-28T23:17:54.182Z,6.33
2022-09-28T23:20:20.935Z,6.39
2022-09-28T23:22:47.566Z,6.39
2022-09-28T23:25:14.412Z,6.39
2022-09-28T23:27:44.732Z,6.28
2022-09-28T23:30:10.711Z,6.43
2022-09-28T23:32:36.487Z,6.36
2022-09-28T23:35:02.360Z,6.31
2022-09-28T23:37:28.129Z,6.33
2022-09-28T23:39:54.013Z,6.22
2022-09-28T23:42:19.747Z,6.20
2022-09-28T23:44:45.510Z,6.23
2022-09-28T23:47:11.271Z,6.31
2022-09-28T23:49:37.122Z,6.31
2022-09-28T23:52:03.001Z,6.30
2022-09-28T23:54:28.847Z,6.41
2022-09-28T23:56:54.652Z,6.34
2022-09-28T23:59:20.494Z,6.35
